createdAt,value
2022-09-13T00:01:11.469Z,14.0
2022-09-13T00:06:17.590Z,16.0
2022-09-13T00:11:23.804Z,16.0
2022-09-13T00:16:30.073Z,17.0
2022-09-13T00:21:36.214Z,17.0
2022-09-13T00:26:42.425Z,17.0
2022-09-13T00:31:48.760Z,17.0
2022-09-13T00:36:54.844Z,16.0
2022-09-13T00:42:00.080Z,15.0
2022-09-13T00:47:06.288Z,14.0
2022-09-13T00:52:11.523Z,14.0
2022-09-13T00:57:17.731Z,14.0
2022-09-13T01:02:23.048Z,14.0
2022-09-13T01:07:29.180Z,13.0
2022-09-13T01:12:35.381Z,13.0
2022-09-13T01:17:41.590Z,13.0
2022-09-13T01:22:47.799Z,13.0
2022-09-13T01:27:54.008Z,12.0
2022-09-13T01:33:00.213Z,12.0
2022-09-13T01:38:06.428Z,12.0
2022-09-13T01:43:12.634Z,12.0
2022-09-13T01:48:18.840Z,11.0
2022-09-13T01:53:25.050Z,12.0
2022-09-13T01:58:31.260Z,11.0
2022-09-13T02:03:37.519Z,12.0
2022-09-13T02:08:43.670Z,11.0
2022-09-13T02:13:49.961Z,12.0
2022-09-13T02:18:56.092Z,11.0
2022-09-13T02:24:02.301Z,11.0
2022-09-13T02:29:08.510Z,10.0
2022-09-13T02:34:14.721Z,11.0
2022-09-13T02:39:20.926Z,11.0
2022-09-13T02:44:27.133Z,11.0
2022-09-13T02:49:32.368Z,11.0
2022-09-13T02:54:38.582Z,10.0
2022-09-13T02:59:43.814Z,10.0
2022-09-13T03:04:50.025Z,10.0
2022-09-13T03:09:56.227Z,10.0
2022-09-13T03:15:02.439Z,11.0
2022-09-13T03:20:08.654Z,10.0
2022-09-13T03:25:14.854Z,11.0
2022-09-13T03:30:21.063Z,11.0
2022-09-13T03:35:27.274Z,10.0
2022-09-13T03:40:33.496Z,10.0
2022-09-13T03:45:39.701Z,10.0
2022-09-13T03:50:45.903Z,10.0
2022-09-13T03:55:52.107Z,10.0
2022-09-13T04:00:58.333Z,10.0
2022-09-13T04:06:04.526Z,9.0
2022-09-13T04:11:10.731Z,9.5
2022-09-13T04:16:17.005Z,10.0
2022-09-13T04:21:23.150Z,10.0
2022-09-13T04:26:29.357Z,10.0
2022-09-13T04:31:35.591Z,9.0
2022-09-13T04:36:41.774Z,10.0
2022-09-13T04:41:47.979Z,10.0
2022-09-13T04:46:53.218Z,10.0
2022-09-13T04:51:59.428Z,10.0
2022-09-13T04:57:04.661Z,10.0
2022-09-13T05:02:10.936Z,9.0
2022-09-13T05:07:17.081Z,10.0
2022-09-13T05:12:23.282Z,10.0
2022-09-13T05:17:29.498Z,10.0
2022-09-13T05:22:35.717Z,10.0
2022-09-13T05:27:41.911Z,10.0
2022-09-13T05:32:48.122Z,10.0
2022-09-13T05:37:54.330Z,11.0
2022-09-13T05:43:00.541Z,10.0
2022-09-13T05:48:06.748Z,10.0
2022-09-13T05:53:12.967Z,11.0
2022-09-13T05:58:19.167Z,11.0
2022-09-13T06:03:25.370Z,11.0
2022-09-13T06:08:31.578Z,11.0
2022-09-13T06:13:37.790Z,11.0
2022-09-13T06:18:43.996Z,11.0
2022-09-13T06:23:50.203Z,12.0
2022-09-13T06:28:56.413Z,12.0
2022-09-13T06:34:02.630Z,13.0
2022-09-13T06:39:08.826Z,14.0
2022-09-13T06:44:14.064Z,14.0
2022-09-13T06:49:20.275Z,14.0
2022-09-13T06:54:25.511Z,15.0
2022-09-13T06:59:31.724Z,16.0
2022-09-13T07:04:37.932Z,16.0
2022-09-13T07:09:44.137Z,17.0
2022-09-13T07:14:50.347Z,18.0
2022-09-13T07:19:56.552Z,18.0
2022-09-13T07:25:02.768Z,19.0
2022-09-13T07:30:08.970Z,20.0
2022-09-13T07:35:15.181Z,21.0
2022-09-13T07:40:21.480Z,21.0
2022-09-13T07:45:27.598Z,22.0
2022-09-13T07:50:33.807Z,22.0
2022-09-13T07:55:40.025Z,22.0
2022-09-13T08:00:46.224Z,23.0
2022-09-13T08:05:52.432Z,22.0
2022-09-13T08:10:58.646Z,23.0
2022-09-13T08:16:04.968Z,24.0
2022-09-13T08:21:11.061Z,25.0
2022-09-13T08:26:17.272Z,24.0
2022-09-13T08:31:23.540Z,24.0
2022-09-13T08:36:29.690Z,24.0
2022-09-13T08:41:34.926Z,24.0
2022-09-13T08:46:41.142Z,22.0
2022-09-13T08:51:47.347Z,22.0
2022-09-13T08:56:52.581Z,22.0
2022-09-13T09:01:58.794Z,17.0
2022-09-13T09:07:05.005Z,18.0
2022-09-13T09:12:11.213Z,21.0
2022-09-13T09:17:17.424Z,28.5
2022-09-13T09:22:23.626Z,21.0
2022-09-13T09:27:29.837Z,20.0
2022-09-13T09:32:36.064Z,20.0
2022-09-13T09:37:42.262Z,17.0
2022-09-13T09:42:48.467Z,16.0
2022-09-13T09:47:54.676Z,15.0
2022-09-13T09:53:00.885Z,25.0
2022-09-13T09:58:07.096Z,15.0
2022-09-13T10:03:13.303Z,16.0
2022-09-13T10:08:19.515Z,16.0
2022-09-13T10:13:29.700Z,15.0
2022-09-13T10:23:38.141Z,12.0
2022-09-13T10:28:44.349Z,11.0
2022-09-13T10:33:50.560Z,10.5
2022-09-13T10:38:56.764Z,9.0
2022-09-13T10:44:04.522Z,9.0
2022-09-13T10:49:08.210Z,8.5
2022-09-13T10:54:14.423Z,9.0
2022-09-13T10:59:19.672Z,8.0
2022-09-13T11:04:25.952Z,6.0
2022-09-13T11:09:32.084Z,6.0
2022-09-13T11:14:38.292Z,6.0
2022-09-13T11:19:44.504Z,7.0
2022-09-13T11:24:50.715Z,9.0
2022-09-13T11:29:56.921Z,9.0
2022-09-13T11:35:03.134Z,9.0
2022-09-13T11:40:09.407Z,9.0
2022-09-13T11:45:19.458Z,9.0
2022-09-13T11:50:21.764Z,9.0
2022-09-13T11:55:27.972Z,10.0
2022-09-13T12:00:34.188Z,8.0
2022-09-13T12:05:40.393Z,8.0
2022-09-13T12:10:46.614Z,8.0
2022-09-13T12:15:52.818Z,7.0
2022-09-13T12:20:59.027Z,6.0
2022-09-13T12:26:05.237Z,7.5
2022-09-13T12:31:11.449Z,8.0
2022-09-13T12:36:17.658Z,9.0
2022-09-13T12:41:23.869Z,8.0
2022-09-13T12:46:29.110Z,8.0
2022-09-13T12:51:35.316Z,9.0
2022-09-13T12:56:40.555Z,7.0
2022-09-13T13:01:46.930Z,9.0
2022-09-13T13:06:52.976Z,8.0
2022-09-13T13:11:59.189Z,8.0
2022-09-13T13:17:05.397Z,8.0
2022-09-13T13:22:11.608Z,8.5
2022-09-13T13:27:17.842Z,7.0
2022-09-13T13:32:24.025Z,6.0
2022-09-13T13:37:30.239Z,5.0
2022-09-13T13:42:36.463Z,7.0
2022-09-13T13:47:42.676Z,7.0
2022-09-13T13:52:48.890Z,5.0
2022-09-13T13:57:55.089Z,5.0
2022-09-13T14:03:01.304Z,5.0
2022-09-13T14:13:13.735Z,4.0
2022-09-13T14:18:19.950Z,4.0
2022-09-13T14:23:26.177Z,5.0
2022-09-13T14:28:32.381Z,5.0
2022-09-13T14:33:38.591Z,4.0
2022-09-13T14:38:43.823Z,3.0
2022-09-13T14:43:49.071Z,4.0
2022-09-13T14:48:55.283Z,3.0
2022-09-13T14:54:00.533Z,4.0
2022-09-13T14:59:06.737Z,3.0
2022-09-13T15:04:13.022Z,3.0
2022-09-13T15:09:19.156Z,3.0
2022-09-13T15:14:25.370Z,2.0
2022-09-13T15:19:31.596Z,2.0
2022-09-13T15:24:37.796Z,3.0
2022-09-13T15:29:44.014Z,3.0
2022-09-13T15:34:50.223Z,3.0
2022-09-13T15:39:56.463Z,3.0
2022-09-13T15:45:02.641Z,3.0
2022-09-13T15:50:08.855Z,3.0
2022-09-13T15:55:15.085Z,4.0
2022-09-13T16:00:21.273Z,3.0
2022-09-13T16:05:27.491Z,4.0
2022-09-13T16:10:33.691Z,4.0
2022-09-13T16:15:39.906Z,3.5
2022-09-13T16:20:46.113Z,4.0
2022-09-13T16:25:52.322Z,4.0
2022-09-13T16:30:58.579Z,4.0
2022-09-13T16:36:04.743Z,4.0
2022-09-13T16:41:09.980Z,4.0
2022-09-13T16:46:16.271Z,4.0
2022-09-13T16:51:21.422Z,4.0
2022-09-13T16:56:27.629Z,4.0
2022-09-13T17:06:40.054Z,2.0
2022-09-13T17:11:46.259Z,3.0
2022-09-13T17:16:52.470Z,4.0
2022-09-13T17:21:58.681Z,3.0
2022-09-13T17:27:04.890Z,4.0
2022-09-13T17:32:11.094Z,3.0
2022-09-13T17:37:17.306Z,2.5
2022-09-13T17:42:23.772Z,4.0
2022-09-13T17:47:29.727Z,4.0
2022-09-13T17:52:35.928Z,2.0
2022-09-13T17:57:42.142Z,4.0
2022-09-13T18:02:48.429Z,2.0
2022-09-13T18:07:54.554Z,2.0
2022-09-13T18:13:00.768Z,2.0
2022-09-13T18:18:06.975Z,1.0
2022-09-13T18:23:13.185Z,2.5
2022-09-13T18:28:19.395Z,3.0
2022-09-13T18:33:25.597Z,2.5
2022-09-13T18:38:31.811Z,3.0
2022-09-13T18:43:37.066Z,4.0
2022-09-13T18:48:43.294Z,3.0
2022-09-13T18:53:49.635Z,3.0
2022-09-13T18:58:54.710Z,3.0
2022-09-13T19:04:00.910Z,4.0
2022-09-13T19:09:07.119Z,3.0
2022-09-13T19:14:13.323Z,3.0
2022-09-13T19:19:19.535Z,3.0
2022-09-13T19:24:26.071Z,4.0
2022-09-13T19:29:31.947Z,3.0
2022-09-13T19:34:38.171Z,3.0
2022-09-13T19:39:44.458Z,4.0
2022-09-13T19:44:50.575Z,4.0
2022-09-13T19:49:56.784Z,3.0
2022-09-13T19:55:02.988Z,4.0
2022-09-13T20:00:09.210Z,2.0
2022-09-13T20:05:15.452Z,3.0
2022-09-13T20:10:21.614Z,3.0
2022-09-13T20:15:27.828Z,4.0
2022-09-13T20:20:34.031Z,3.0
2022-09-13T20:25:40.241Z,2.0
2022-09-13T20:30:46.500Z,3.0
2022-09-13T20:35:52.668Z,5.0
2022-09-13T20:40:58.868Z,3.0
2022-09-13T20:46:04.126Z,3.0
2022-09-13T20:51:10.310Z,2.0
2022-09-13T20:56:15.547Z,3.0
2022-09-13T21:01:21.837Z,4.0
2022-09-13T21:06:27.976Z,3.0
2022-09-13T21:11:34.172Z,5.0
2022-09-13T21:16:40.442Z,5.0
2022-09-13T21:21:46.587Z,3.5
2022-09-13T21:26:52.794Z,4.0
2022-09-13T21:31:59.010Z,4.0
2022-09-13T21:37:05.215Z,5.0
2022-09-13T21:42:11.419Z,4.5
2022-09-13T21:47:17.629Z,4.0
2022-09-13T21:52:23.841Z,5.0
2022-09-13T21:57:30.055Z,4.0
2022-09-13T22:02:36.330Z,6.0
2022-09-13T22:07:42.467Z,4.0
2022-09-13T22:12:48.690Z,3.0
2022-09-13T22:17:54.876Z,5.0
2022-09-13T22:23:01.085Z,4.0
2022-09-13T22:28:07.295Z,4.0
2022-09-13T22:33:13.501Z,3.0
2022-09-13T22:38:19.715Z,3.5
2022-09-13T22:43:24.955Z,6.0
2022-09-13T22:48:31.168Z,4.0
2022-09-13T22:53:37.369Z,5.0
2022-09-13T22:58:43.587Z,6.0
2022-09-13T23:03:50.088Z,4.0
2022-09-13T23:08:55.993Z,4.0
2022-09-13T23:14:02.208Z,5.0
2022-09-13T23:19:08.422Z,5.0
2022-09-13T23:24:14.621Z,5.0
2022-09-13T23:29:20.837Z,5.0
2022-09-13T23:34:27.041Z,5.0
2022-09-13T23:39:33.251Z,4.0
2022-09-13T23:44:39.459Z,5.0
2022-09-13T23:49:45.668Z,4.0
2022-09-13T23:54:51.872Z,6.0
2022-09-13T23:59:58.080Z,4.0
